sim
Sign-in with your pilot id or email,
or register
Callsign
Passwort

Schedule Details

Flight Number: OEO1718
Departure: Munster Osnabruck International -?Airport (EDDG) at 05:45
Arrival: Fuerteventura Airport (GCFV) at 10:35

Weather Information
Getting current METAR information for EDDG 231050Z VRB06KT CAVOK 30/15 Q1021 NOSIG
Getting current METAR information for GCFV 231030Z 05013KT 9999 FEW020 24/18 Q1017

Schedule Frequency

Route Map